sensor_id;sensor_type;location;lat;lon;timestamp;temperature;humidity
2387;DHT22;49473;50.772;8.768;2023-02-27T00:00:14;-1.70;99.90
2387;DHT22;49473;50.772;8.768;2023-02-27T00:02:41;-1.60;99.90
2387;DHT22;49473;50.772;8.768;2023-02-27T00:05:09;-1.60;99.90
2387;DHT22;49473;50.772;8.768;2023-02-27T00:07:37;-1.50;99.90
2387;DHT22;49473;50.772;8.768;2023-02-27T00:10:06;-1.50;99.90
2387;DHT22;49473;50.772;8.768;2023-02-27T00:12:34;-1.50;99.90
2387;DHT22;49473;50.772;8.768;2023-02-27T00:15:04;-1.50;99.90
2387;DHT22;49473;50.772;8.768;2023-02-27T00:17:30;-1.40;99.90
2387;DHT22;49473;50.772;8.768;2023-02-27T00:19:57;-1.40;99.90
2387;DHT22;49473;50.772;8.768;2023-02-27T00:22:24;-1.40;99.90
2387;DHT22;49473;50.772;8.768;2023-02-27T00:24:52;-1.40;99.90
2387;DHT22;49473;50.772;8.768;2023-02-27T00:27:19;-1.40;99.90
2387;DHT22;49473;50.772;8.768;2023-02-27T00:29:45;-1.40;99.90
2387;DHT22;49473;50.772;8.768;2023-02-27T00:32:12;-1.40;99.90
2387;DHT22;49473;50.772;8.768;2023-02-27T00:34:39;-1.40;99.90
2387;DHT22;49473;50.772;8.768;2023-02-27T00:37:06;-1.50;99.90
2387;DHT22;49473;50.772;8.768;2023-02-27T00:39:33;-1.50;99.90
2387;DHT22;49473;50.772;8.768;2023-02-27T00:42:01;-1.50;99.90
2387;DHT22;49473;50.772;8.768;2023-02-27T00:44:28;-1.60;99.90
2387;DHT22;49473;50.772;8.768;2023-02-27T00:46:54;-1.60;99.90
2387;DHT22;49473;50.772;8.768;2023-02-27T00:49:21;-1.60;99.90
2387;DHT22;49473;50.772;8.768;2023-02-27T00:51:49;-1.60;99.90
2387;DHT22;49473;50.772;8.768;2023-02-27T00:54:16;-1.60;99.90
2387;DHT22;49473;50.772;8.768;2023-02-27T00:56:43;-1.70;99.90
2387;DHT22;49473;50.772;8.768;2023-02-27T00:59:11;-1.70;99.90
2387;DHT22;49473;50.772;8.768;2023-02-27T01:01:38;-1.70;99.90
2387;DHT22;49473;50.772;8.768;2023-02-27T01:04:04;-1.70;99.90
2387;DHT22;49473;50.772;8.768;2023-02-27T01:06:31;-1.70;99.90
2387;DHT22;49473;50.772;8.768;2023-02-27T01:08:58;-1.70;99.90
2387;DHT22;49473;50.772;8.768;2023-02-27T01:11:24;-1.80;99.90
2387;DHT22;49473;50.772;8.768;2023-02-27T01:13:51;-1.70;99.90
2387;DHT22;49473;50.772;8.768;2023-02-27T01:16:19;-1.70;99.90
2387;DHT22;49473;50.772;8.768;2023-02-27T01:18:46;-1.70;99.90
2387;DHT22;49473;50.772;8.768;2023-02-27T01:21:13;-1.70;99.90
2387;DHT22;49473;50.772;8.768;2023-02-27T01:23:39;-1.80;99.90
2387;DHT22;49473;50.772;8.768;2023-02-27T01:26:06;-1.90;99.90
2387;DHT22;49473;50.772;8.768;2023-02-27T01:28:33;-2.00;99.90
2387;DHT22;49473;50.772;8.768;2023-02-27T01:31:00;-2.10;99.90
2387;DHT22;49473;50.772;8.768;2023-02-27T01:33:28;-2.20;99.90
2387;DHT22;49473;50.772;8.768;2023-02-27T01:35:54;-2.20;99.90
2387;DHT22;49473;50.772;8.768;2023-02-27T01:38:21;-2.20;99.90
2387;DHT22;49473;50.772;8.768;2023-02-27T01:40:48;-2.30;99.90
2387;DHT22;49473;50.772;8.768;2023-02-27T01:43:17;-2.30;99.90
2387;DHT22;49473;50.772;8.768;2023-02-27T01:45:45;-2.40;99.90
2387;DHT22;49473;50.772;8.768;2023-02-27T01:48:16;-2.40;99.90
2387;DHT22;49473;50.772;8.768;2023-02-27T01:50:48;-2.40;99.90
2387;DHT22;49473;50.772;8.768;2023-02-27T01:53:17;-2.40;99.90
2387;DHT22;49473;50.772;8.768;2023-02-27T01:55:45;-2.40;99.90
2387;DHT22;49473;50.772;8.768;2023-02-27T01:58:13;-2.60;99.90
2387;DHT22;49473;50.772;8.768;2023-02-27T02:00:41;-2.70;99.90
2387;DHT22;49473;50.772;8.768;2023-02-27T02:03:15;-2.70;99.90
2387;DHT22;49473;50.772;8.768;2023-02-27T02:05:43;-2.60;99.90
2387;DHT22;49473;50.772;8.768;2023-02-27T02:08:15;-2.50;99.90
2387;DHT22;49473;50.772;8.768;2023-02-27T02:10:43;-2.40;99.90
2387;DHT22;49473;50.772;8.768;2023-02-27T02:13:11;-2.30;99.90
2387;DHT22;49473;50.772;8.768;2023-02-27T02:15:46;-2.40;99.90
2387;DHT22;49473;50.772;8.768;2023-02-27T02:18:19;-2.40;99.90
2387;DHT22;49473;50.772;8.768;2023-02-27T02:21:19;-2.40;99.90
2387;DHT22;49473;50.772;8.768;2023-02-27T02:24:31;-2.40;99.90
2387;DHT22;49473;50.772;8.768;2023-02-27T02:27:06;-2.30;99.90
2387;DHT22;49473;50.772;8.768;2023-02-27T02:30:07;-2.30;99.90
2387;DHT22;49473;50.772;8.768;2023-02-27T02:32:56;-2.30;99.90
2387;DHT22;49473;50.772;8.768;2023-02-27T02:36:06;-2.20;99.90
2387;DHT22;49473;50.772;8.768;2023-02-27T02:41:50;-2.20;99.90
2387;DHT22;49473;50.772;8.768;2023-02-27T02:44:23;-2.20;99.90
2387;DHT22;49473;50.772;8.768;2023-02-27T02:47:01;-2.20;99.90
2387;DHT22;49473;50.772;8.768;2023-02-27T02:49:34;-2.10;99.90
2387;DHT22;49473;50.772;8.768;2023-02-27T02:52:08;-2.20;99.90
2387;DHT22;49473;50.772;8.768;2023-02-27T02:54:42;-2.20;99.90
2387;DHT22;49473;50.772;8.768;2023-02-27T02:57:14;-2.20;99.90
2387;DHT22;49473;50.772;8.768;2023-02-27T02:59:47;-2.20;99.90
2387;DHT22;49473;50.772;8.768;2023-02-27T03:02:19;-2.20;99.90
2387;DHT22;49473;50.772;8.768;2023-02-27T03:04:50;-2.20;99.90
2387;DHT22;49473;50.772;8.768;2023-02-27T03:07:22;-2.20;99.90
2387;DHT22;49473;50.772;8.768;2023-02-27T03:09:56;-2.40;99.90
2387;DHT22;49473;50.772;8.768;2023-02-27T03:12:27;-2.50;99.90
2387;DHT22;49473;50.772;8.768;2023-02-27T03:15:00;-2.80;99.90
2387;DHT22;49473;50.772;8.768;2023-02-27T03:17:35;-3.00;99.90
2387;DHT22;49473;50.772;8.768;2023-02-27T03:20:06;-3.20;99.90
2387;DHT22;49473;50.772;8.768;2023-02-27T03:22:36;-3.20;99.90
2387;DHT22;49473;50.772;8.768;2023-02-27T03:25:08;-3.20;99.90
2387;DHT22;49473;50.772;8.768;2023-02-27T03:27:37;-3.20;99.90
2387;DHT22;49473;50.772;8.768;2023-02-27T03:30:08;-3.20;99.90
2387;DHT22;49473;50.772;8.768;2023-02-27T03:32:40;-3.30;99.90
2387;DHT22;49473;50.772;8.768;2023-02-27T03:35:10;-3.40;99.90
2387;DHT22;49473;50.772;8.768;2023-02-27T03:37:44;-3.20;99.90
2387;DHT22;49473;50.772;8.768;2023-02-27T03:40:25;-3.20;99.90
2387;DHT22;49473;50.772;8.768;2023-02-27T03:42:57;-3.10;99.90
2387;DHT22;49473;50.772;8.768;2023-02-27T03:45:32;-3.00;99.90
2387;DHT22;49473;50.772;8.768;2023-02-27T03:48:02;-3.00;99.90
2387;DHT22;49473;50.772;8.768;2023-02-27T03:50:29;-3.00;99.90
2387;DHT22;49473;50.772;8.768;2023-02-27T03:52:56;-3.00;99.90
2387;DHT22;49473;50.772;8.768;2023-02-27T03:55:28;-3.00;99.90
2387;DHT22;49473;50.772;8.768;2023-02-27T03:57:56;-3.00;99.90
2387;DHT22;49473;50.772;8.768;2023-02-27T04:00:24;-2.90;99.90
2387;DHT22;49473;50.772;8.768;2023-02-27T04:02:53;-3.10;99.90
2387;DHT22;49473;50.772;8.768;2023-02-27T04:05:21;-3.10;99.90
2387;DHT22;49473;50.772;8.768;2023-02-27T04:08:01;-3.10;99.90
2387;DHT22;49473;50.772;8.768;2023-02-27T04:10:47;-3.20;99.90
2387;DHT22;49473;50.772;8.768;2023-02-27T04:13:33;-3.10;99.90
2387;DHT22;49473;50.772;8.768;2023-02-27T04:16:31;-3.10;99.90
2387;DHT22;49473;50.772;8.768;2023-02-27T04:19:13;-3.00;99.90
2387;DHT22;49473;50.772;8.768;2023-02-27T04:21:48;-3.00;99.90
2387;DHT22;49473;50.772;8.768;2023-02-27T04:24:28;-3.00;99.90
2387;DHT22;49473;50.772;8.768;2023-02-27T04:27:04;-3.00;99.90
2387;DHT22;49473;50.772;8.768;2023-02-27T04:29:36;-3.00;99.90
2387;DHT22;49473;50.772;8.768;2023-02-27T04:32:12;-3.00;99.90
2387;DHT22;49473;50.772;8.768;2023-02-27T04:34:42;-3.00;99.90
2387;DHT22;49473;50.772;8.768;2023-02-27T04:37:14;-3.10;99.90
2387;DHT22;49473;50.772;8.768;2023-02-27T04:39:44;-3.10;99.90
2387;DHT22;49473;50.772;8.768;2023-02-27T04:42:20;-3.10;99.90
2387;DHT22;49473;50.772;8.768;2023-02-27T04:44:50;-3.10;99.90
2387;DHT22;49473;50.772;8.768;2023-02-27T04:47:18;-3.10;99.90
2387;DHT22;49473;50.772;8.768;2023-02-27T04:49:49;-3.10;99.90
2387;DHT22;49473;50.772;8.768;2023-02-27T04:52:21;-3.10;99.90
2387;DHT22;49473;50.772;8.768;2023-02-27T04:54:51;-3.20;99.90
2387;DHT22;49473;50.772;8.768;2023-02-27T04:57:24;-3.20;99.90
2387;DHT22;49473;50.772;8.768;2023-02-27T04:59:54;-3.30;99.90
2387;DHT22;49473;50.772;8.768;2023-02-27T05:02:24;-3.30;99.90
2387;DHT22;49473;50.772;8.768;2023-02-27T05:04:55;-3.40;99.90
2387;DHT22;49473;50.772;8.768;2023-02-27T05:07:26;-3.40;99.90
2387;DHT22;49473;50.772;8.768;2023-02-27T05:09:58;-3.40;99.90
2387;DHT22;49473;50.772;8.768;2023-02-27T05:12:32;-3.50;99.90
2387;DHT22;49473;50.772;8.768;2023-02-27T05:15:04;-3.60;99.90
2387;DHT22;49473;50.772;8.768;2023-02-27T05:17:37;-3.70;99.90
2387;DHT22;49473;50.772;8.768;2023-02-27T05:20:05;-3.80;99.90
2387;DHT22;49473;50.772;8.768;2023-02-27T05:22:35;-3.90;99.90
2387;DHT22;49473;50.772;8.768;2023-02-27T05:25:09;-3.90;99.90
2387;DHT22;49473;50.772;8.768;2023-02-27T05:27:44;-3.90;99.90
2387;DHT22;49473;50.772;8.768;2023-02-27T05:30:20;-3.80;99.90
2387;DHT22;49473;50.772;8.768;2023-02-27T05:32:52;-3.80;99.90
2387;DHT22;49473;50.772;8.768;2023-02-27T05:35:23;-3.80;99.90
2387;DHT22;49473;50.772;8.768;2023-02-27T05:37:56;-3.80;99.90
2387;DHT22;49473;50.772;8.768;2023-02-27T05:40:31;-3.80;99.90
2387;DHT22;49473;50.772;8.768;2023-02-27T05:43:04;-3.80;99.90
2387;DHT22;49473;50.772;8.768;2023-02-27T05:45:33;-3.80;99.90
2387;DHT22;49473;50.772;8.768;2023-02-27T05:48:05;-3.80;99.90
2387;DHT22;49473;50.772;8.768;2023-02-27T05:50:36;-3.80;99.90
2387;DHT22;49473;50.772;8.768;2023-02-27T05:53:06;-3.80;99.90
2387;DHT22;49473;50.772;8.768;2023-02-27T05:55:37;-3.80;99.90
2387;DHT22;49473;50.772;8.768;2023-02-27T05:58:11;-3.80;99.90
2387;DHT22;49473;50.772;8.768;2023-02-27T06:00:42;-3.80;99.90
2387;DHT22;49473;50.772;8.768;2023-02-27T06:03:10;-3.80;99.90
2387;DHT22;49473;50.772;8.768;2023-02-27T06:05:37;-3.80;99.90
2387;DHT22;49473;50.772;8.768;2023-02-27T06:08:05;-3.90;99.90
2387;DHT22;49473;50.772;8.768;2023-02-27T06:10:32;-3.90;99.90
2387;DHT22;49473;50.772;8.768;2023-02-27T06:12:59;-4.00;99.90
2387;DHT22;49473;50.772;8.768;2023-02-27T06:15:27;-4.00;99.90
2387;DHT22;49473;50.772;8.768;2023-02-27T06:17:53;-4.00;99.90
2387;DHT22;49473;50.772;8.768;2023-02-27T06:20:21;-4.00;99.90
2387;DHT22;49473;50.772;8.768;2023-02-27T06:22:47;-4.00;99.90
2387;DHT22;49473;50.772;8.768;2023-02-27T06:25:14;-4.10;99.90
2387;DHT22;49473;50.772;8.768;2023-02-27T06:27:41;-4.10;99.90
2387;DHT22;49473;50.772;8.768;2023-02-27T06:30:09;-4.10;99.90
2387;DHT22;49473;50.772;8.768;2023-02-27T06:32:37;-4.20;99.90
2387;DHT22;49473;50.772;8.768;2023-02-27T06:35:04;-4.30;99.90
2387;DHT22;49473;50.772;8.768;2023-02-27T06:37:31;-4.40;99.90
2387;DHT22;49473;50.772;8.768;2023-02-27T06:39:58;-4.40;99.90
2387;DHT22;49473;50.772;8.768;2023-02-27T06:42:25;-4.40;99.90
2387;DHT22;49473;50.772;8.768;2023-02-27T06:44:51;-4.30;99.90
2387;DHT22;49473;50.772;8.768;2023-02-27T06:47:18;-4.20;99.90
2387;DHT22;49473;50.772;8.768;2023-02-27T06:49:46;-4.10;99.90
2387;DHT22;49473;50.772;8.768;2023-02-27T06:52:13;-4.00;99.90
2387;DHT22;49473;50.772;8.768;2023-02-27T06:54:40;-3.90;99.90
2387;DHT22;49473;50.772;8.768;2023-02-27T06:57:07;-3.70;99.90
2387;DHT22;49473;50.772;8.768;2023-02-27T06:59:34;-3.60;99.90
2387;DHT22;49473;50.772;8.768;2023-02-27T07:02:00;-3.50;99.90
2387;DHT22;49473;50.772;8.768;2023-02-27T07:04:27;-3.40;99.90
2387;DHT22;49473;50.772;8.768;2023-02-27T07:06:55;-3.20;99.90
2387;DHT22;49473;50.772;8.768;2023-02-27T07:09:23;-3.20;99.90
2387;DHT22;49473;50.772;8.768;2023-02-27T07:11:50;-3.20;99.90
2387;DHT22;49473;50.772;8.768;2023-02-27T07:14:16;-3.10;99.90
2387;DHT22;49473;50.772;8.768;2023-02-27T07:16:43;-3.00;99.90
2387;DHT22;49473;50.772;8.768;2023-02-27T07:19:11;-3.00;99.90
2387;DHT22;49473;50.772;8.768;2023-02-27T07:21:38;-2.90;99.90
2387;DHT22;49473;50.772;8.768;2023-02-27T07:24:06;-2.80;99.90
2387;DHT22;49473;50.772;8.768;2023-02-27T07:26:34;-2.50;99.90
2387;DHT22;49473;50.772;8.768;2023-02-27T07:29:01;-1.90;99.90
2387;DHT22;49473;50.772;8.768;2023-02-27T07:31:28;-1.30;99.90
2387;DHT22;49473;50.772;8.768;2023-02-27T07:33:55;-0.70;99.90
2387;DHT22;49473;50.772;8.768;2023-02-27T07:36:22;-0.10;99.90
2387;DHT22;49473;50.772;8.768;2023-02-27T07:38:48;0.40;99.90
2387;DHT22;49473;50.772;8.768;2023-02-27T07:41:16;0.70;99.90
2387;DHT22;49473;50.772;8.768;2023-02-27T07:43:43;0.90;99.90
2387;DHT22;49473;50.772;8.768;2023-02-27T07:46:10;0.70;99.90
2387;DHT22;49473;50.772;8.768;2023-02-27T07:48:37;0.60;99.90
2387;DHT22;49473;50.772;8.768;2023-02-27T07:51:05;0.50;99.90
2387;DHT22;49473;50.772;8.768;2023-02-27T07:53:32;0.40;99.90
2387;DHT22;49473;50.772;8.768;2023-02-27T07:55:59;0.30;99.90
2387;DHT22;49473;50.772;8.768;2023-02-27T07:58:27;0.40;99.90
2387;DHT22;49473;50.772;8.768;2023-02-27T08:00:53;0.50;99.90
2387;DHT22;49473;50.772;8.768;2023-02-27T08:03:20;0.70;99.90
2387;DHT22;49473;50.772;8.768;2023-02-27T08:05:47;1.00;99.90
2387;DHT22;49473;50.772;8.768;2023-02-27T08:08:14;1.20;99.90
2387;DHT22;49473;50.772;8.768;2023-02-27T08:10:40;1.40;99.90
2387;DHT22;49473;50.772;8.768;2023-02-27T08:13:07;1.30;99.90
2387;DHT22;49473;50.772;8.768;2023-02-27T08:15:35;1.20;99.90
2387;DHT22;49473;50.772;8.768;2023-02-27T08:18:02;1.30;99.90
2387;DHT22;49473;50.772;8.768;2023-02-27T08:20:29;1.40;99.90
2387;DHT22;49473;50.772;8.768;2023-02-27T08:22:56;1.60;99.90
2387;DHT22;49473;50.772;8.768;2023-02-27T08:25:23;1.70;99.90
2387;DHT22;49473;50.772;8.768;2023-02-27T08:27:50;1.90;99.90
2387;DHT22;49473;50.772;8.768;2023-02-27T08:30:17;2.10;99.90
2387;DHT22;49473;50.772;8.768;2023-02-27T08:32:45;2.20;99.90
2387;DHT22;49473;50.772;8.768;2023-02-27T08:35:12;2.10;99.90
2387;DHT22;49473;50.772;8.768;2023-02-27T08:37:38;2.10;99.90
2387;DHT22;49473;50.772;8.768;2023-02-27T08:40:06;2.30;99.90
2387;DHT22;49473;50.772;8.768;2023-02-27T08:42:35;2.50;99.90
2387;DHT22;49473;50.772;8.768;2023-02-27T08:45:02;2.60;99.90
2387;DHT22;49473;50.772;8.768;2023-02-27T08:47:29;2.50;99.90
2387;DHT22;49473;50.772;8.768;2023-02-27T08:49:57;2.50;99.90
2387;DHT22;49473;50.772;8.768;2023-02-27T08:52:24;2.50;99.90
2387;DHT22;49473;50.772;8.768;2023-02-27T08:54:50;2.60;99.90
2387;DHT22;49473;50.772;8.768;2023-02-27T08:57:17;2.50;99.90
2387;DHT22;49473;50.772;8.768;2023-02-27T08:59:44;2.50;99.90
2387;DHT22;49473;50.772;8.768;2023-02-27T09:02:10;2.30;99.90
2387;DHT22;49473;50.772;8.768;2023-02-27T09:04:37;2.60;99.90
2387;DHT22;49473;50.772;8.768;2023-02-27T09:07:05;3.00;99.90
2387;DHT22;49473;50.772;8.768;2023-02-27T09:09:32;3.80;99.90
2387;DHT22;49473;50.772;8.768;2023-02-27T09:11:59;4.50;99.90
2387;DHT22;49473;50.772;8.768;2023-02-27T09:14:26;4.50;99.90
2387;DHT22;49473;50.772;8.768;2023-02-27T09:16:52;4.50;99.90
2387;DHT22;49473;50.772;8.768;2023-02-27T09:19:19;4.50;99.90
2387;DHT22;49473;50.772;8.768;2023-02-27T09:21:46;4.90;99.90
2387;DHT22;49473;50.772;8.768;2023-02-27T09:24:14;5.80;99.90
2387;DHT22;49473;50.772;8.768;2023-02-27T09:26:41;7.70;99.90
2387;DHT22;49473;50.772;8.768;2023-02-27T09:29:07;7.80;99.90
2387;DHT22;49473;50.772;8.768;2023-02-27T09:31:34;8.90;99.90
2387;DHT22;49473;50.772;8.768;2023-02-27T09:34:01;7.90;96.10
2387;DHT22;49473;50.772;8.768;2023-02-27T09:36:28;7.70;98.20
2387;DHT22;49473;50.772;8.768;2023-02-27T09:38:54;8.60;95.80
2387;DHT22;49473;50.772;8.768;2023-02-27T09:41:41;7.40;95.00
2387;DHT22;49473;50.772;8.768;2023-02-27T09:44:17;7.80;96.90
2387;DHT22;49473;50.772;8.768;2023-02-27T09:46:46;7.50;94.00
2387;DHT22;49473;50.772;8.768;2023-02-27T09:49:17;7.70;95.60
2387;DHT22;49473;50.772;8.768;2023-02-27T09:51:45;7.50;94.10
2387;DHT22;49473;50.772;8.768;2023-02-27T09:54:12;7.40;94.60
2387;DHT22;49473;50.772;8.768;2023-02-27T09:56:46;7.30;94.60
2387;DHT22;49473;50.772;8.768;2023-02-27T09:59:19;7.90;94.70
2387;DHT22;49473;50.772;8.768;2023-02-27T10:01:56;8.90;92.70
2387;DHT22;49473;50.772;8.768;2023-02-27T10:04:35;8.60;92.00
2387;DHT22;49473;50.772;8.768;2023-02-27T10:07:11;9.20;92.70
2387;DHT22;49473;50.772;8.768;2023-02-27T10:09:46;8.70;90.90
2387;DHT22;49473;50.772;8.768;2023-02-27T10:12:29;7.80;92.10
2387;DHT22;49473;50.772;8.768;2023-02-27T10:15:03;8.40;92.70
2387;DHT22;49473;50.772;8.768;2023-02-27T10:17:38;9.80;91.10
2387;DHT22;49473;50.772;8.768;2023-02-27T10:20:09;10.30;90.60
2387;DHT22;49473;50.772;8.768;2023-02-27T10:22:43;9.30;87.30
2387;DHT22;49473;50.772;8.768;2023-02-27T10:25:15;9.30;88.10
2387;DHT22;49473;50.772;8.768;2023-02-27T10:27:47;9.10;87.00
2387;DHT22;49473;50.772;8.768;2023-02-27T10:30:19;9.50;89.30
2387;DHT22;49473;50.772;8.768;2023-02-27T10:32:47;9.40;87.40
2387;DHT22;49473;50.772;8.768;2023-02-27T10:35:25;9.30;88.30
2387;DHT22;49473;50.772;8.768;2023-02-27T10:37:58;9.80;87.80
2387;DHT22;49473;50.772;8.768;2023-02-27T10:40:27;10.20;85.10
2387;DHT22;49473;50.772;8.768;2023-02-27T10:42:59;10.10;82.60
2387;DHT22;49473;50.772;8.768;2023-02-27T10:45:27;11.20;81.50
2387;DHT22;49473;50.772;8.768;2023-02-27T10:47:54;10.30;80.60
2387;DHT22;49473;50.772;8.768;2023-02-27T10:50:23;10.70;82.10
2387;DHT22;49473;50.772;8.768;2023-02-27T10:52:52;10.60;78.80
2387;DHT22;49473;50.772;8.768;2023-02-27T10:55:23;10.60;78.70
2387;DHT22;49473;50.772;8.768;2023-02-27T10:57:50;11.70;77.30
2387;DHT22;49473;50.772;8.768;2023-02-27T11:00:32;10.60;75.10
2387;DHT22;49473;50.772;8.768;2023-02-27T11:03:00;9.60;78.00
2387;DHT22;49473;50.772;8.768;2023-02-27T11:05:28;10.60;78.10
2387;DHT22;49473;50.772;8.768;2023-02-27T11:08:09;10.90;78.80
2387;DHT22;49473;50.772;8.768;2023-02-27T11:10:53;12.20;76.90
2387;DHT22;49473;50.772;8.768;2023-02-27T11:13:22;13.50;74.40
2387;DHT22;49473;50.772;8.768;2023-02-27T11:16:12;13.90;67.80
2387;DHT22;49473;50.772;8.768;2023-02-27T11:18:40;13.40;66.90
2387;DHT22;49473;50.772;8.768;2023-02-27T11:21:15;15.00;68.40
2387;DHT22;49473;50.772;8.768;2023-02-27T11:23:54;16.20;65.00
2387;DHT22;49473;50.772;8.768;2023-02-27T11:26:25;14.90;59.20
2387;DHT22;49473;50.772;8.768;2023-02-27T11:29:03;13.60;59.70
2387;DHT22;49473;50.772;8.768;2023-02-27T11:31:33;13.70;61.90
2387;DHT22;49473;50.772;8.768;2023-02-27T11:34:00;13.10;61.00
2387;DHT22;49473;50.772;8.768;2023-02-27T11:36:38;13.40;64.00
2387;DHT22;49473;50.772;8.768;2023-02-27T11:39:06;13.40;62.80
2387;DHT22;49473;50.772;8.768;2023-02-27T11:41:33;15.40;62.60
2387;DHT22;49473;50.772;8.768;2023-02-27T11:44:02;16.20;59.80
2387;DHT22;49473;50.772;8.768;2023-02-27T11:46:31;15.30;57.20
2387;DHT22;49473;50.772;8.768;2023-02-27T11:49:05;13.80;57.80
2387;DHT22;49473;50.772;8.768;2023-02-27T11:51:48;13.20;59.60
2387;DHT22;49473;50.772;8.768;2023-02-27T11:54:23;12.00;61.70
2387;DHT22;49473;50.772;8.768;2023-02-27T11:56:59;12.10;62.40
2387;DHT22;49473;50.772;8.768;2023-02-27T11:59:34;11.60;62.40
2387;DHT22;49473;50.772;8.768;2023-02-27T12:02:13;11.50;64.10
2387;DHT22;49473;50.772;8.768;2023-02-27T12:04:45;12.00;63.40
2387;DHT22;49473;50.772;8.768;2023-02-27T12:07:18;12.10;62.20
2387;DHT22;49473;50.772;8.768;2023-02-27T12:09:52;10.80;63.90
2387;DHT22;49473;50.772;8.768;2023-02-27T12:12:25;9.00;67.30
2387;DHT22;49473;50.772;8.768;2023-02-27T12:15:01;7.60;71.90
2387;DHT22;49473;50.772;8.768;2023-02-27T12:17:38;8.40;72.40
2387;DHT22;49473;50.772;8.768;2023-02-27T12:20:21;7.40;73.10
2387;DHT22;49473;50.772;8.768;2023-02-27T12:22:51;7.30;75.00
2387;DHT22;49473;50.772;8.768;2023-02-27T12:25:26;7.50;76.20
2387;DHT22;49473;50.772;8.768;2023-02-27T12:28:00;6.80;76.10
2387;DHT22;49473;50.772;8.768;2023-02-27T12:30:32;6.70;77.30
2387;DHT22;49473;50.772;8.768;2023-02-27T12:33:02;7.40;82.60
2387;DHT22;49473;50.772;8.768;2023-02-27T12:35:35;8.10;75.80
2387;DHT22;49473;50.772;8.768;2023-02-27T12:38:02;9.00;73.60
2387;DHT22;49473;50.772;8.768;2023-02-27T12:40:31;10.30;71.60
2387;DHT22;49473;50.772;8.768;2023-02-27T12:43:20;10.50;69.70
2387;DHT22;49473;50.772;8.768;2023-02-27T12:45:59;9.20;71.60
2387;DHT22;49473;50.772;8.768;2023-02-27T12:48:44;9.10;74.80
2387;DHT22;49473;50.772;8.768;2023-02-27T12:51:26;10.50;69.80
2387;DHT22;49473;50.772;8.768;2023-02-27T12:54:05;12.60;69.10
2387;DHT22;49473;50.772;8.768;2023-02-27T12:56:45;12.40;62.60
2387;DHT22;49473;50.772;8.768;2023-02-27T12:59:25;12.60;63.90
2387;DHT22;49473;50.772;8.768;2023-02-27T13:02:00;14.50;63.00
2387;DHT22;49473;50.772;8.768;2023-02-27T13:04:37;12.70;58.00
2387;DHT22;49473;50.772;8.768;2023-02-27T13:07:12;10.60;63.10
2387;DHT22;49473;50.772;8.768;2023-02-27T13:09:46;11.10;64.10
2387;DHT22;49473;50.772;8.768;2023-02-27T13:12:22;12.70;65.40
2387;DHT22;49473;50.772;8.768;2023-02-27T13:14:55;13.70;61.10
2387;DHT22;49473;50.772;8.768;2023-02-27T13:17:30;12.60;59.10
2387;DHT22;49473;50.772;8.768;2023-02-27T13:20:05;12.90;60.30
2387;DHT22;49473;50.772;8.768;2023-02-27T13:22:38;14.50;63.40
2387;DHT22;49473;50.772;8.768;2023-02-27T13:25:13;15.80;59.30
2387;DHT22;49473;50.772;8.768;2023-02-27T13:27:43;15.00;58.10
2387;DHT22;49473;50.772;8.768;2023-02-27T13:30:14;11.90;58.50
2387;DHT22;49473;50.772;8.768;2023-02-27T13:32:45;10.70;62.00
2387;DHT22;49473;50.772;8.768;2023-02-27T13:35:22;9.70;65.80
2387;DHT22;49473;50.772;8.768;2023-02-27T13:37:54;8.40;65.90
2387;DHT22;49473;50.772;8.768;2023-02-27T13:40:35;7.50;70.60
2387;DHT22;49473;50.772;8.768;2023-02-27T13:43:11;7.40;72.50
2387;DHT22;49473;50.772;8.768;2023-02-27T13:45:56;7.10;71.90
2387;DHT22;49473;50.772;8.768;2023-02-27T13:48:38;6.90;73.20
2387;DHT22;49473;50.772;8.768;2023-02-27T13:51:10;6.60;73.70
2387;DHT22;49473;50.772;8.768;2023-02-27T13:54:11;6.70;75.50
2387;DHT22;49473;50.772;8.768;2023-02-27T13:56:43;6.90;76.30
2387;DHT22;49473;50.772;8.768;2023-02-27T13:59:12;7.00;75.40
2387;DHT22;49473;50.772;8.768;2023-02-27T14:01:49;6.70;76.20
2387;DHT22;49473;50.772;8.768;2023-02-27T14:04:19;6.70;78.40
2387;DHT22;49473;50.772;8.768;2023-02-27T14:06:48;6.60;75.30
2387;DHT22;49473;50.772;8.768;2023-02-27T14:09:18;6.20;75.80
2387;DHT22;49473;50.772;8.768;2023-02-27T14:11:53;5.90;76.70
2387;DHT22;49473;50.772;8.768;2023-02-27T14:14:40;6.00;79.80
2387;DHT22;49473;50.772;8.768;2023-02-27T14:17:10;6.20;81.20
2387;DHT22;49473;50.772;8.768;2023-02-27T14:19:53;6.20;82.60
2387;DHT22;49473;50.772;8.768;2023-02-27T14:25:44;6.10;83.30
2387;DHT22;49473;50.772;8.768;2023-02-27T14:28:19;5.70;82.30
2387;DHT22;49473;50.772;8.768;2023-02-27T14:30:54;5.60;86.00
2387;DHT22;49473;50.772;8.768;2023-02-27T14:33:24;5.60;85.90
2387;DHT22;49473;50.772;8.768;2023-02-27T14:35:58;5.40;87.70
2387;DHT22;49473;50.772;8.768;2023-02-27T14:38:26;5.30;87.50
2387;DHT22;49473;50.772;8.768;2023-02-27T14:41:09;5.30;90.00
2387;DHT22;49473;50.772;8.768;2023-02-27T14:43:44;5.40;89.50
2387;DHT22;49473;50.772;8.768;2023-02-27T14:46:23;5.50;90.10
2387;DHT22;49473;50.772;8.768;2023-02-27T14:48:55;5.40;90.30
2387;DHT22;49473;50.772;8.768;2023-02-27T14:51:24;5.40;90.00
2387;DHT22;49473;50.772;8.768;2023-02-27T14:54:03;5.40;90.60
2387;DHT22;49473;50.772;8.768;2023-02-27T14:56:32;5.20;88.80
2387;DHT22;49473;50.772;8.768;2023-02-27T14:58:59;5.10;89.00
2387;DHT22;49473;50.772;8.768;2023-02-27T15:01:32;4.80;88.80
2387;DHT22;49473;50.772;8.768;2023-02-27T15:04:00;4.80;90.40
2387;DHT22;49473;50.772;8.768;2023-02-27T15:06:34;4.90;90.40
2387;DHT22;49473;50.772;8.768;2023-02-27T15:09:02;4.70;88.90
2387;DHT22;49473;50.772;8.768;2023-02-27T15:11:30;4.50;90.40
2387;DHT22;49473;50.772;8.768;2023-02-27T15:14:00;4.40;90.60
2387;DHT22;49473;50.772;8.768;2023-02-27T15:16:31;4.30;90.70
2387;DHT22;49473;50.772;8.768;2023-02-27T15:19:11;4.20;91.20
2387;DHT22;49473;50.772;8.768;2023-02-27T15:21:40;4.10;91.60
2387;DHT22;49473;50.772;8.768;2023-02-27T15:24:23;4.10;91.90
2387;DHT22;49473;50.772;8.768;2023-02-27T15:26:53;4.10;92.40
2387;DHT22;49473;50.772;8.768;2023-02-27T15:29:23;4.10;92.70
2387;DHT22;49473;50.772;8.768;2023-02-27T15:31:51;4.00;92.90
2387;DHT22;49473;50.772;8.768;2023-02-27T15:34:18;4.00;93.20
2387;DHT22;49473;50.772;8.768;2023-02-27T15:36:49;4.00;94.20
2387;DHT22;49473;50.772;8.768;2023-02-27T15:39:18;4.10;94.00
2387;DHT22;49473;50.772;8.768;2023-02-27T15:41:47;4.10;94.50
2387;DHT22;49473;50.772;8.768;2023-02-27T15:44:16;4.10;94.90
2387;DHT22;49473;50.772;8.768;2023-02-27T15:46:44;4.10;95.60
2387;DHT22;49473;50.772;8.768;2023-02-27T15:49:15;4.10;95.90
2387;DHT22;49473;50.772;8.768;2023-02-27T15:51:44;4.00;95.40
2387;DHT22;49473;50.772;8.768;2023-02-27T15:54:12;4.10;97.60
2387;DHT22;49473;50.772;8.768;2023-02-27T15:56:40;4.10;96.80
2387;DHT22;49473;50.772;8.768;2023-02-27T15:59:08;4.00;97.50
2387;DHT22;49473;50.772;8.768;2023-02-27T16:01:41;4.00;98.50
2387;DHT22;49473;50.772;8.768;2023-02-27T16:04:16;4.00;98.10
2387;DHT22;49473;50.772;8.768;2023-02-27T16:06:47;3.90;97.90
2387;DHT22;49473;50.772;8.768;2023-02-27T16:09:20;3.80;97.90
2387;DHT22;49473;50.772;8.768;2023-02-27T16:11:47;3.80;99.80
2387;DHT22;49473;50.772;8.768;2023-02-27T16:14:36;3.80;99.90
2387;DHT22;49473;50.772;8.768;2023-02-27T16:17:22;3.90;99.90
2387;DHT22;49473;50.772;8.768;2023-02-27T16:19:48;3.90;99.90
2387;DHT22;49473;50.772;8.768;2023-02-27T16:22:17;4.00;99.90
2387;DHT22;49473;50.772;8.768;2023-02-27T16:24:44;4.00;99.90